sensor_id;sensor_type;location;lat;lon;timestamp;pressure;altitude;pressure_sealevel;temperature;humidity
68456;BME280;55437;55.046;38.838;2022-07-06T00:01:50;99890.88;;;19.10;75.59
68456;BME280;55437;55.046;38.838;2022-07-06T00:04:19;99895.34;;;19.08;75.64
68456;BME280;55437;55.046;38.838;2022-07-06T00:06:45;99894.66;;;19.06;75.96
68456;BME280;55437;55.046;38.838;2022-07-06T00:09:11;99894.84;;;19.03;75.63
68456;BME280;55437;55.046;38.838;2022-07-06T00:11:37;99885.75;;;18.96;75.60
68456;BME280;55437;55.046;38.838;2022-07-06T00:14:04;99884.41;;;18.90;75.77
68456;BME280;55437;55.046;38.838;2022-07-06T00:16:30;99887.09;;;18.89;75.76
68456;BME280;55437;55.046;38.838;2022-07-06T00:18:56;99888.22;;;18.85;75.90
68456;BME280;55437;55.046;38.838;2022-07-06T00:21:22;99878.97;;;18.81;76.13
68456;BME280;55437;55.046;38.838;2022-07-06T00:23:47;99896.25;;;18.82;76.16
68456;BME280;55437;55.046;38.838;2022-07-06T00:26:13;99884.06;;;18.82;76.15
68456;BME280;55437;55.046;38.838;2022-07-06T00:28:39;99879.81;;;18.81;75.94
68456;BME280;55437;55.046;38.838;2022-07-06T00:31:05;99884.78;;;18.72;76.01
68456;BME280;55437;55.046;38.838;2022-07-06T00:33:32;99878.38;;;18.63;76.05
68456;BME280;55437;55.046;38.838;2022-07-06T00:35:58;99881.16;;;18.60;76.16
68456;BME280;55437;55.046;38.838;2022-07-06T00:38:24;99886.50;;;18.58;76.54
68456;BME280;55437;55.046;38.838;2022-07-06T00:40:50;99891.69;;;18.58;76.94
68456;BME280;55437;55.046;38.838;2022-07-06T00:43:15;99892.31;;;18.62;77.08
68456;BME280;55437;55.046;38.838;2022-07-06T00:45:41;99900.56;;;18.68;76.98
68456;BME280;55437;55.046;38.838;2022-07-06T00:48:09;99897.88;;;18.70;76.64
68456;BME280;55437;55.046;38.838;2022-07-06T00:50:34;99893.50;;;18.70;76.53
68456;BME280;55437;55.046;38.838;2022-07-06T00:53:03;99896.09;;;18.70;76.79
68456;BME280;55437;55.046;38.838;2022-07-06T00:55:31;99900.25;;;18.73;76.44
68456;BME280;55437;55.046;38.838;2022-07-06T00:57:57;99893.28;;;18.74;76.22
68456;BME280;55437;55.046;38.838;2022-07-06T01:00:25;99897.88;;;18.70;76.13
68456;BME280;55437;55.046;38.838;2022-07-06T01:02:52;99910.13;;;18.68;76.34
68456;BME280;55437;55.046;38.838;2022-07-06T01:05:19;99910.22;;;18.66;76.22
68456;BME280;55437;55.046;38.838;2022-07-06T01:07:47;99904.94;;;18.68;76.34
68456;BME280;55437;55.046;38.838;2022-07-06T01:10:14;99911.59;;;18.72;76.38
68456;BME280;55437;55.046;38.838;2022-07-06T01:12:42;99914.84;;;18.76;76.19
68456;BME280;55437;55.046;38.838;2022-07-06T01:15:21;99920.69;;;18.79;76.00
68456;BME280;55437;55.046;38.838;2022-07-06T01:17:48;99916.22;;;18.81;75.72
68456;BME280;55437;55.046;38.838;2022-07-06T01:22:45;99919.72;;;19.07;75.14
68456;BME280;55437;55.046;38.838;2022-07-06T01:25:12;99916.84;;;19.24;74.48
68456;BME280;55437;55.046;38.838;2022-07-06T01:27:39;99919.06;;;19.43;73.98
68456;BME280;55437;55.046;38.838;2022-07-06T01:30:07;99929.28;;;19.71;73.08
68456;BME280;55437;55.046;38.838;2022-07-06T01:32:34;99942.66;;;19.92;72.41
68456;BME280;55437;55.046;38.838;2022-07-06T01:35:00;99939.78;;;20.08;72.13
68456;BME280;55437;55.046;38.838;2022-07-06T01:37:26;99942.91;;;20.26;72.23
68456;BME280;55437;55.046;38.838;2022-07-06T01:39:52;99940.25;;;20.51;71.62
68456;BME280;55437;55.046;38.838;2022-07-06T01:42:18;99948.84;;;20.77;70.92
68456;BME280;55437;55.046;38.838;2022-07-06T01:44:44;99947.03;;;21.01;70.01
68456;BME280;55437;55.046;38.838;2022-07-06T01:47:11;99951.09;;;21.29;68.70
68456;BME280;55437;55.046;38.838;2022-07-06T01:49:37;99956.84;;;21.45;68.17
68456;BME280;55437;55.046;38.838;2022-07-06T01:52:03;99949.88;;;21.68;67.44
68456;BME280;55437;55.046;38.838;2022-07-06T01:54:29;99955.00;;;21.92;66.75
68456;BME280;55437;55.046;38.838;2022-07-06T01:56:55;99953.38;;;22.02;66.13
68456;BME280;55437;55.046;38.838;2022-07-06T01:59:20;99955.03;;;22.25;66.15
68456;BME280;55437;55.046;38.838;2022-07-06T02:01:46;99960.94;;;22.50;65.60
68456;BME280;55437;55.046;38.838;2022-07-06T02:04:12;99964.00;;;22.77;64.67
68456;BME280;55437;55.046;38.838;2022-07-06T02:06:38;99954.97;;;22.81;64.84
68456;BME280;55437;55.046;38.838;2022-07-06T02:09:06;99956.19;;;22.98;63.81
68456;BME280;55437;55.046;38.838;2022-07-06T02:11:33;99951.13;;;23.17;63.20
68456;BME280;55437;55.046;38.838;2022-07-06T02:13:58;99954.00;;;23.35;62.77
68456;BME280;55437;55.046;38.838;2022-07-06T02:16:24;99950.66;;;23.65;61.84
68456;BME280;55437;55.046;38.838;2022-07-06T02:18:52;99955.41;;;24.11;60.58
68456;BME280;55437;55.046;38.838;2022-07-06T02:21:18;99952.66;;;24.53;59.02
68456;BME280;55437;55.046;38.838;2022-07-06T02:23:45;99951.34;;;24.87;58.04
68456;BME280;55437;55.046;38.838;2022-07-06T02:26:11;99956.22;;;25.11;57.43
68456;BME280;55437;55.046;38.838;2022-07-06T02:28:38;99955.50;;;25.28;57.22
68456;BME280;55437;55.046;38.838;2022-07-06T02:31:04;99952.97;;;25.65;56.25
68456;BME280;55437;55.046;38.838;2022-07-06T02:33:31;99960.19;;;26.00;55.58
68456;BME280;55437;55.046;38.838;2022-07-06T02:35:56;99953.41;;;26.35;54.51
68456;BME280;55437;55.046;38.838;2022-07-06T02:38:22;99952.88;;;26.76;53.37
68456;BME280;55437;55.046;38.838;2022-07-06T02:40:48;99952.97;;;27.20;52.32
68456;BME280;55437;55.046;38.838;2022-07-06T02:43:17;99947.88;;;27.62;51.25
68456;BME280;55437;55.046;38.838;2022-07-06T02:45:43;99955.16;;;28.02;50.17
68456;BME280;55437;55.046;38.838;2022-07-06T02:48:10;99959.97;;;28.41;49.25
68456;BME280;55437;55.046;38.838;2022-07-06T02:50:55;99956.63;;;28.73;48.54
68456;BME280;55437;55.046;38.838;2022-07-06T02:53:21;99944.44;;;28.96;47.81
68456;BME280;55437;55.046;38.838;2022-07-06T02:55:50;99950.56;;;28.96;47.53
68456;BME280;55437;55.046;38.838;2022-07-06T02:58:16;99947.44;;;29.09;47.49
68456;BME280;55437;55.046;38.838;2022-07-06T03:00:41;99951.88;;;29.49;46.75
68456;BME280;55437;55.046;38.838;2022-07-06T03:03:08;99953.66;;;29.81;45.97
68456;BME280;55437;55.046;38.838;2022-07-06T03:05:35;99954.59;;;29.96;45.80
68456;BME280;55437;55.046;38.838;2022-07-06T03:08:01;99965.47;;;30.09;45.57
68456;BME280;55437;55.046;38.838;2022-07-06T03:10:27;99959.56;;;30.38;45.01
68456;BME280;55437;55.046;38.838;2022-07-06T03:12:54;99956.75;;;30.71;44.00
68456;BME280;55437;55.046;38.838;2022-07-06T03:15:20;99961.06;;;30.95;43.47
68456;BME280;55437;55.046;38.838;2022-07-06T03:17:46;99961.47;;;31.14;43.19
68456;BME280;55437;55.046;38.838;2022-07-06T03:20:13;99969.22;;;31.39;42.34
68456;BME280;55437;55.046;38.838;2022-07-06T03:22:41;99961.66;;;31.65;41.68
68456;BME280;55437;55.046;38.838;2022-07-06T03:25:09;99960.56;;;31.89;41.16
68456;BME280;55437;55.046;38.838;2022-07-06T03:27:37;99965.81;;;32.12;40.78
68456;BME280;55437;55.046;38.838;2022-07-06T03:30:03;99964.59;;;32.14;40.59
68456;BME280;55437;55.046;38.838;2022-07-06T03:32:31;99967.38;;;32.21;40.67
68456;BME280;55437;55.046;38.838;2022-07-06T03:34:58;99964.69;;;32.36;40.19
68456;BME280;55437;55.046;38.838;2022-07-06T03:37:24;99964.66;;;32.50;40.02
68456;BME280;55437;55.046;38.838;2022-07-06T03:39:53;99966.47;;;32.50;40.10
68456;BME280;55437;55.046;38.838;2022-07-06T03:42:19;99956.66;;;31.85;41.06
68456;BME280;55437;55.046;38.838;2022-07-06T03:44:45;99966.25;;;31.34;42.17
68456;BME280;55437;55.046;38.838;2022-07-06T03:47:12;99972.66;;;31.25;42.26
68456;BME280;55437;55.046;38.838;2022-07-06T03:49:38;99971.66;;;31.40;42.20
68456;BME280;55437;55.046;38.838;2022-07-06T03:52:05;99970.97;;;31.61;41.89
68456;BME280;55437;55.046;38.838;2022-07-06T03:54:39;99976.06;;;31.85;41.39
68456;BME280;55437;55.046;38.838;2022-07-06T03:57:24;99970.16;;;31.61;41.59
68456;BME280;55437;55.046;38.838;2022-07-06T03:59:51;99967.28;;;31.10;42.69
68456;BME280;55437;55.046;38.838;2022-07-06T04:02:17;99966.66;;;30.46;43.77
68456;BME280;55437;55.046;38.838;2022-07-06T04:04:43;99964.22;;;29.89;44.92
68456;BME280;55437;55.046;38.838;2022-07-06T04:07:09;99958.63;;;29.76;45.46
68456;BME280;55437;55.046;38.838;2022-07-06T04:09:35;99951.53;;;29.36;46.55
68456;BME280;55437;55.046;38.838;2022-07-06T04:12:01;99950.59;;;29.45;46.53
68456;BME280;55437;55.046;38.838;2022-07-06T04:14:27;99943.53;;;29.85;45.55
68456;BME280;55437;55.046;38.838;2022-07-06T04:16:53;99944.25;;;30.26;44.93
68456;BME280;55437;55.046;38.838;2022-07-06T04:19:20;99944.06;;;30.66;43.93
68456;BME280;55437;55.046;38.838;2022-07-06T04:21:45;99937.50;;;31.00;43.41
68456;BME280;55437;55.046;38.838;2022-07-06T04:24:12;99935.81;;;31.44;42.65
68456;BME280;55437;55.046;38.838;2022-07-06T04:26:38;99933.44;;;31.49;42.16
68456;BME280;55437;55.046;38.838;2022-07-06T04:29:04;99936.16;;;31.41;42.56
68456;BME280;55437;55.046;38.838;2022-07-06T04:31:30;99928.38;;;31.25;42.73
68456;BME280;55437;55.046;38.838;2022-07-06T04:33:56;99936.03;;;30.97;43.16
68456;BME280;55437;55.046;38.838;2022-07-06T04:36:23;99927.72;;;30.55;43.63
68456;BME280;55437;55.046;38.838;2022-07-06T04:38:49;99931.66;;;30.28;44.33
68456;BME280;55437;55.046;38.838;2022-07-06T04:41:15;99933.53;;;30.11;44.93
68456;BME280;55437;55.046;38.838;2022-07-06T04:43:42;99933.38;;;30.13;44.97
68456;BME280;55437;55.046;38.838;2022-07-06T04:46:11;99939.44;;;30.21;44.89
68456;BME280;55437;55.046;38.838;2022-07-06T04:48:40;99933.41;;;30.35;44.85
68456;BME280;55437;55.046;38.838;2022-07-06T04:51:09;99936.63;;;30.62;44.11
68456;BME280;55437;55.046;38.838;2022-07-06T04:53:35;99942.91;;;30.84;43.55
68456;BME280;55437;55.046;38.838;2022-07-06T04:56:03;99934.13;;;31.06;43.02
68456;BME280;55437;55.046;38.838;2022-07-06T04:58:31;99931.66;;;31.27;42.57
68456;BME280;55437;55.046;38.838;2022-07-06T05:00:57;99937.06;;;31.34;42.15
68456;BME280;55437;55.046;38.838;2022-07-06T05:03:24;99933.06;;;31.38;42.45
68456;BME280;55437;55.046;38.838;2022-07-06T05:05:50;99939.94;;;31.47;42.03
68456;BME280;55437;55.046;38.838;2022-07-06T05:08:16;99935.41;;;31.70;41.92
68456;BME280;55437;55.046;38.838;2022-07-06T05:10:44;99929.72;;;31.88;41.58
68456;BME280;55437;55.046;38.838;2022-07-06T05:13:10;99930.09;;;31.85;41.39
68456;BME280;55437;55.046;38.838;2022-07-06T05:15:36;99935.66;;;31.90;41.25
68456;BME280;55437;55.046;38.838;2022-07-06T05:18:02;99924.78;;;32.00;41.07
68456;BME280;55437;55.046;38.838;2022-07-06T05:20:28;99942.97;;;32.17;41.10
68456;BME280;55437;55.046;38.838;2022-07-06T05:22:54;99940.03;;;32.42;40.62
68456;BME280;55437;55.046;38.838;2022-07-06T05:25:24;99944.72;;;32.61;40.07
68456;BME280;55437;55.046;38.838;2022-07-06T05:27:51;99947.66;;;32.66;39.87
68456;BME280;55437;55.046;38.838;2022-07-06T05:30:16;99928.53;;;32.56;40.01
68456;BME280;55437;55.046;38.838;2022-07-06T05:32:43;99944.59;;;32.48;39.62
68456;BME280;55437;55.046;38.838;2022-07-06T05:35:09;99944.34;;;32.13;39.88
68456;BME280;55437;55.046;38.838;2022-07-06T05:37:54;99944.56;;;31.68;40.25
68456;BME280;55437;55.046;38.838;2022-07-06T05:40:20;99943.31;;;31.56;40.91
68456;BME280;55437;55.046;38.838;2022-07-06T05:42:46;99943.69;;;31.52;40.85
68456;BME280;55437;55.046;38.838;2022-07-06T05:45:12;99946.22;;;31.31;40.79
68456;BME280;55437;55.046;38.838;2022-07-06T05:47:38;99941.66;;;31.55;40.44
68456;BME280;55437;55.046;38.838;2022-07-06T05:50:23;99953.09;;;32.22;39.79
68456;BME280;55437;55.046;38.838;2022-07-06T05:53:03;99953.25;;;32.71;39.13
68456;BME280;55437;55.046;38.838;2022-07-06T05:55:30;99942.31;;;32.81;39.01
68456;BME280;55437;55.046;38.838;2022-07-06T05:57:58;99942.38;;;33.09;38.46
68456;BME280;55437;55.046;38.838;2022-07-06T06:00:27;99930.06;;;33.29;37.86
68456;BME280;55437;55.046;38.838;2022-07-06T06:02:56;99923.56;;;33.73;37.17
68456;BME280;55437;55.046;38.838;2022-07-06T06:05:24;99932.03;;;34.24;36.56
68456;BME280;55437;55.046;38.838;2022-07-06T06:07:53;99931.16;;;34.64;36.02
68456;BME280;55437;55.046;38.838;2022-07-06T06:10:22;99934.31;;;35.27;34.63
68456;BME280;55437;55.046;38.838;2022-07-06T06:12:51;99927.84;;;35.94;33.95
68456;BME280;55437;55.046;38.838;2022-07-06T06:15:17;99931.56;;;36.44;32.67
68456;BME280;55437;55.046;38.838;2022-07-06T06:17:45;99924.63;;;36.30;32.62
68456;BME280;55437;55.046;38.838;2022-07-06T06:20:13;99922.88;;;36.04;32.56
68456;BME280;55437;55.046;38.838;2022-07-06T06:22:56;99918.91;;;36.20;32.44
68456;BME280;55437;55.046;38.838;2022-07-06T06:25:37;99920.78;;;36.58;32.02
68456;BME280;55437;55.046;38.838;2022-07-06T06:28:04;99918.44;;;36.99;31.80
68456;BME280;55437;55.046;38.838;2022-07-06T06:30:31;99915.50;;;37.50;30.88
68456;BME280;55437;55.046;38.838;2022-07-06T06:33:18;99910.41;;;37.85;30.38
68456;BME280;55437;55.046;38.838;2022-07-06T06:35:48;99913.00;;;38.10;29.93
68456;BME280;55437;55.046;38.838;2022-07-06T06:38:15;99912.91;;;38.17;29.70
68456;BME280;55437;55.046;38.838;2022-07-06T06:40:41;99913.72;;;38.17;29.36
68456;BME280;55437;55.046;38.838;2022-07-06T06:43:26;99909.75;;;38.38;29.13
68456;BME280;55437;55.046;38.838;2022-07-06T06:46:15;99917.91;;;38.62;29.03
68456;BME280;55437;55.046;38.838;2022-07-06T06:48:40;99911.16;;;38.94;28.30
68456;BME280;55437;55.046;38.838;2022-07-06T06:51:06;99919.50;;;39.16;27.83
68456;BME280;55437;55.046;38.838;2022-07-06T06:53:32;99924.78;;;39.22;28.07
68456;BME280;55437;55.046;38.838;2022-07-06T06:55:58;99917.31;;;39.48;27.90
68456;BME280;55437;55.046;38.838;2022-07-06T06:58:24;99917.84;;;39.61;27.32
68456;BME280;55437;55.046;38.838;2022-07-06T07:00:50;99912.69;;;39.83;26.95
68456;BME280;55437;55.046;38.838;2022-07-06T07:03:16;99915.66;;;39.58;27.17
68456;BME280;55437;55.046;38.838;2022-07-06T07:05:45;99912.41;;;39.45;27.36
68456;BME280;55437;55.046;38.838;2022-07-06T07:08:11;99913.66;;;39.54;27.00
68456;BME280;55437;55.046;38.838;2022-07-06T07:10:38;99904.69;;;39.48;27.04
68456;BME280;55437;55.046;38.838;2022-07-06T07:13:04;99907.47;;;39.07;28.11
68456;BME280;55437;55.046;38.838;2022-07-06T07:15:30;99904.56;;;39.08;27.99
68456;BME280;55437;55.046;38.838;2022-07-06T07:17:56;99903.63;;;39.26;27.61
68456;BME280;55437;55.046;38.838;2022-07-06T07:20:22;99901.94;;;38.90;27.98
68456;BME280;55437;55.046;38.838;2022-07-06T07:22:48;99907.84;;;38.99;28.14
68456;BME280;55437;55.046;38.838;2022-07-06T07:25:13;99906.16;;;38.86;28.57
68456;BME280;55437;55.046;38.838;2022-07-06T07:27:39;99914.72;;;39.06;28.35
68456;BME280;55437;55.046;38.838;2022-07-06T07:30:06;99906.22;;;39.44;28.52
68456;BME280;55437;55.046;38.838;2022-07-06T07:32:31;99900.03;;;39.44;28.01
68456;BME280;55437;55.046;38.838;2022-07-06T07:34:57;99909.13;;;39.31;27.67
68456;BME280;55437;55.046;38.838;2022-07-06T07:37:42;99899.66;;;39.05;28.18
68456;BME280;55437;55.046;38.838;2022-07-06T07:40:08;99903.38;;;39.04;28.06
68456;BME280;55437;55.046;38.838;2022-07-06T07:42:34;99907.47;;;39.30;28.48
68456;BME280;55437;55.046;38.838;2022-07-06T07:44:59;99898.22;;;39.38;28.29
68456;BME280;55437;55.046;38.838;2022-07-06T07:47:25;99892.63;;;39.51;28.20
68456;BME280;55437;55.046;38.838;2022-07-06T07:49:51;99902.91;;;39.54;28.60
68456;BME280;55437;55.046;38.838;2022-07-06T07:52:17;99901.75;;;39.50;28.45
68456;BME280;55437;55.046;38.838;2022-07-06T07:54:42;99906.78;;;39.11;28.03
68456;BME280;55437;55.046;38.838;2022-07-06T07:57:08;99907.31;;;38.90;28.29
68456;BME280;55437;55.046;38.838;2022-07-06T07:59:35;99902.28;;;38.82;28.99
68456;BME280;55437;55.046;38.838;2022-07-06T08:02:01;99908.94;;;38.91;28.50
68456;BME280;55437;55.046;38.838;2022-07-06T08:04:45;99901.47;;;38.93;28.71
68456;BME280;55437;55.046;38.838;2022-07-06T08:07:11;99893.53;;;38.45;28.37
68456;BME280;55437;55.046;38.838;2022-07-06T08:09:37;99895.88;;;38.11;29.29
68456;BME280;55437;55.046;38.838;2022-07-06T08:12:03;99899.00;;;38.08;29.22
68456;BME280;55437;55.046;38.838;2022-07-06T08:14:29;99887.47;;;37.90;28.88
68456;BME280;55437;55.046;38.838;2022-07-06T08:16:55;99883.44;;;37.99;28.30
68456;BME280;55437;55.046;38.838;2022-07-06T08:19:20;99888.47;;;38.25;28.82
68456;BME280;55437;55.046;38.838;2022-07-06T08:21:46;99885.38;;;38.40;27.92
68456;BME280;55437;55.046;38.838;2022-07-06T08:24:15;99890.09;;;38.56;27.22
68456;BME280;55437;55.046;38.838;2022-07-06T08:26:44;99881.81;;;38.58;27.63
68456;BME280;55437;55.046;38.838;2022-07-06T08:29:09;99884.13;;;38.54;28.60
68456;BME280;55437;55.046;38.838;2022-07-06T08:31:35;99893.66;;;38.38;28.98
68456;BME280;55437;55.046;38.838;2022-07-06T08:34:01;99884.97;;;38.25;28.79
68456;BME280;55437;55.046;38.838;2022-07-06T08:36:27;99887.31;;;38.03;28.55
68456;BME280;55437;55.046;38.838;2022-07-06T08:38:53;99884.78;;;37.71;28.96
68456;BME280;55437;55.046;38.838;2022-07-06T08:41:23;99884.88;;;37.22;29.42
68456;BME280;55437;55.046;38.838;2022-07-06T08:43:52;99892.94;;;36.65;29.98
68456;BME280;55437;55.046;38.838;2022-07-06T08:46:19;99891.56;;;36.56;31.04
68456;BME280;55437;55.046;38.838;2022-07-06T08:48:49;99894.31;;;36.43;31.51
68456;BME280;55437;55.046;38.838;2022-07-06T08:51:16;99891.09;;;36.34;31.12
68456;BME280;55437;55.046;38.838;2022-07-06T08:53:44;99892.16;;;36.27;32.03
68456;BME280;55437;55.046;38.838;2022-07-06T08:56:10;99887.91;;;36.06;31.90
68456;BME280;55437;55.046;38.838;2022-07-06T08:58:37;99887.81;;;35.81;32.11
68456;BME280;55437;55.046;38.838;2022-07-06T09:01:10;99882.09;;;35.51;31.45
68456;BME280;55437;55.046;38.838;2022-07-06T09:03:36;99884.63;;;35.33;31.36
68456;BME280;55437;55.046;38.838;2022-07-06T09:06:04;99888.31;;;35.19;32.46
68456;BME280;55437;55.046;38.838;2022-07-06T09:08:32;99880.50;;;35.17;33.37
68456;BME280;55437;55.046;38.838;2022-07-06T09:10:58;99882.56;;;35.22;33.31
68456;BME280;55437;55.046;38.838;2022-07-06T09:13:24;99878.84;;;35.16;32.81
68456;BME280;55437;55.046;38.838;2022-07-06T09:15:52;99881.34;;;35.04;33.02
68456;BME280;55437;55.046;38.838;2022-07-06T09:18:21;99876.81;;;34.79;33.20
68456;BME280;55437;55.046;38.838;2022-07-06T09:20:47;99884.16;;;34.57;33.40
68456;BME280;55437;55.046;38.838;2022-07-06T09:23:16;99882.09;;;34.39;32.32
68456;BME280;55437;55.046;38.838;2022-07-06T09:25:42;99878.31;;;34.20;31.94
68456;BME280;55437;55.046;38.838;2022-07-06T09:28:15;99867.59;;;34.01;31.79
68456;BME280;55437;55.046;38.838;2022-07-06T09:30:41;99871.28;;;34.06;32.74
68456;BME280;55437;55.046;38.838;2022-07-06T09:33:07;99863.53;;;34.05;32.91
68456;BME280;55437;55.046;38.838;2022-07-06T09:35:38;99866.28;;;33.83;32.93
68456;BME280;55437;55.046;38.838;2022-07-06T09:38:06;99865.16;;;33.71;34.02
68456;BME280;55437;55.046;38.838;2022-07-06T09:40:35;99859.94;;;33.50;34.53
68456;BME280;55437;55.046;38.838;2022-07-06T09:43:16;99866.47;;;33.41;34.37
68456;BME280;55437;55.046;38.838;2022-07-06T09:45:44;99860.69;;;33.37;34.67
68456;BME280;55437;55.046;38.838;2022-07-06T09:48:13;99866.91;;;33.44;34.58
68456;BME280;55437;55.046;38.838;2022-07-06T09:50:47;99863.50;;;33.57;34.27
68456;BME280;55437;55.046;38.838;2022-07-06T09:53:14;99862.94;;;33.75;34.27
68456;BME280;55437;55.046;38.838;2022-07-06T09:55:50;99867.44;;;33.74;33.98
68456;BME280;55437;55.046;38.838;2022-07-06T09:58:17;99866.00;;;33.72;33.88
68456;BME280;55437;55.046;38.838;2022-07-06T10:00:45;99859.78;;;33.58;33.51
68456;BME280;55437;55.046;38.838;2022-07-06T10:03:12;99849.84;;;33.32;33.50
68456;BME280;55437;55.046;38.838;2022-07-06T10:05:41;99850.72;;;33.18;33.56
68456;BME280;55437;55.046;38.838;2022-07-06T10:08:07;99853.13;;;33.13;33.68
68456;BME280;55437;55.046;38.838;2022-07-06T10:10:35;99846.34;;;33.10;34.03
68456;BME280;55437;55.046;38.838;2022-07-06T10:13:01;99850.00;;;33.03;33.98
68456;BME280;55437;55.046;38.838;2022-07-06T10:15:29;99839.91;;;32.98;34.04
68456;BME280;55437;55.046;38.838;2022-07-06T10:17:58;99832.56;;;33.00;33.60
68456;BME280;55437;55.046;38.838;2022-07-06T10:20:28;99835.44;;;32.99;33.60
68456;BME280;55437;55.046;38.838;2022-07-06T10:22:54;99823.47;;;32.88;34.31
68456;BME280;55437;55.046;38.838;2022-07-06T10:25:23;99824.50;;;32.87;34.68
68456;BME280;55437;55.046;38.838;2022-07-06T10:27:49;99827.75;;;32.82;34.35
68456;BME280;55437;55.046;38.838;2022-07-06T10:30:15;99822.03;;;32.85;35.01
68456;BME280;55437;55.046;38.838;2022-07-06T10:32:44;99826.75;;;32.83;34.81
68456;BME280;55437;55.046;38.838;2022-07-06T10:35:12;99819.00;;;32.67;34.98
68456;BME280;55437;55.046;38.838;2022-07-06T10:37:38;99816.75;;;32.43;35.13
68456;BME280;55437;55.046;38.838;2022-07-06T10:40:15;99814.28;;;32.41;35.41
68456;BME280;55437;55.046;38.838;2022-07-06T10:43:01;99815.53;;;32.45;35.35
68456;BME280;55437;55.046;38.838;2022-07-06T10:50:55;99810.72;;;32.55;34.80
68456;BME280;55437;55.046;38.838;2022-07-06T10:53:24;99809.75;;;32.63;35.04
68456;BME280;55437;55.046;38.838;2022-07-06T10:55:52;99811.22;;;32.66;34.93
68456;BME280;55437;55.046;38.838;2022-07-06T11:01:11;99810.16;;;32.60;35.11
68456;BME280;55437;55.046;38.838;2022-07-06T11:03:48;99800.09;;;32.55;35.69
68456;BME280;55437;55.046;38.838;2022-07-06T11:08:47;99805.84;;;32.59;36.05
68456;BME280;55437;55.046;38.838;2022-07-06T11:11:16;99807.69;;;32.59;36.13
68456;BME280;55437;55.046;38.838;2022-07-06T11:19:14;99808.38;;;32.67;35.72
68456;BME280;55437;55.046;38.838;2022-07-06T11:21:43;99811.78;;;32.61;35.59
68456;BME280;55437;55.046;38.838;2022-07-06T11:24:29;99817.72;;;32.63;35.13
68456;BME280;55437;55.046;38.838;2022-07-06T11:26:57;99805.50;;;32.69;34.92
68456;BME280;55437;55.046;38.838;2022-07-06T11:29:27;99813.00;;;32.59;34.77
68456;BME280;55437;55.046;38.838;2022-07-06T11:31:55;99803.19;;;32.59;35.16
68456;BME280;55437;55.046;38.838;2022-07-06T11:34:24;99803.03;;;32.67;35.10
68456;BME280;55437;55.046;38.838;2022-07-06T11:36:58;99801.69;;;32.71;35.53
68456;BME280;55437;55.046;38.838;2022-07-06T11:39:32;99794.31;;;32.52;35.79
68456;BME280;55437;55.046;38.838;2022-07-06T11:41:59;99789.66;;;32.33;36.01
68456;BME280;55437;55.046;38.838;2022-07-06T11:44:26;99795.78;;;32.12;35.90
68456;BME280;55437;55.046;38.838;2022-07-06T11:46:55;99795.41;;;32.00;36.26
68456;BME280;55437;55.046;38.838;2022-07-06T11:49:26;99790.31;;;31.99;36.88
68456;BME280;55437;55.046;38.838;2022-07-06T11:51:52;99792.38;;;32.03;37.33
68456;BME280;55437;55.046;38.838;2022-07-06T11:54:20;99789.09;;;32.01;37.57
68456;BME280;55437;55.046;38.838;2022-07-06T11:56:57;99791.81;;;31.87;37.17
68456;BME280;55437;55.046;38.838;2022-07-06T11:59:31;99793.88;;;31.70;38.03
68456;BME280;55437;55.046;38.838;2022-07-06T12:02:16;99793.13;;;31.46;38.52
68456;BME280;55437;55.046;38.838;2022-07-06T12:05:01;99791.66;;;31.29;39.55
68456;BME280;55437;55.046;38.838;2022-07-06T12:07:28;99797.44;;;31.18;40.39
68456;BME280;55437;55.046;38.838;2022-07-06T12:09:53;99793.22;;;31.09;40.41
68456;BME280;55437;55.046;38.838;2022-07-06T12:12:19;99783.69;;;31.00;40.38
68456;BME280;55437;55.046;38.838;2022-07-06T12:14:45;99782.31;;;30.89;41.18
68456;BME280;55437;55.046;38.838;2022-07-06T12:17:15;99784.84;;;30.83;41.73
68456;BME280;55437;55.046;38.838;2022-07-06T12:19:44;99781.91;;;30.77;42.79
68456;BME280;55437;55.046;38.838;2022-07-06T12:22:12;99784.63;;;30.69;44.66
68456;BME280;55437;55.046;38.838;2022-07-06T12:24:42;99781.72;;;30.64;45.46
68456;BME280;55437;55.046;38.838;2022-07-06T12:27:16;99775.94;;;30.61;45.77
68456;BME280;55437;55.046;38.838;2022-07-06T12:29:44;99770.72;;;30.67;45.32
68456;BME280;55437;55.046;38.838;2022-07-06T12:32:15;99775.31;;;30.73;46.31
68456;BME280;55437;55.046;38.838;2022-07-06T12:34:41;99776.50;;;30.71;47.15
68456;BME280;55437;55.046;38.838;2022-07-06T12:37:09;99779.97;;;30.71;46.28
68456;BME280;55437;55.046;38.838;2022-07-06T12:39:42;99779.06;;;30.64;46.56
68456;BME280;55437;55.046;38.838;2022-07-06T12:42:19;99784.22;;;30.58;47.05
68456;BME280;55437;55.046;38.838;2022-07-06T12:44:50;99790.41;;;30.50;46.19
68456;BME280;55437;55.046;38.838;2022-07-06T12:47:21;99786.19;;;30.41;47.00
68456;BME280;55437;55.046;38.838;2022-07-06T12:50:10;99798.47;;;30.34;47.65
68456;BME280;55437;55.046;38.838;2022-07-06T12:52:37;99782.66;;;30.26;48.44
68456;BME280;55437;55.046;38.838;2022-07-06T12:55:06;99780.69;;;30.20;48.03
68456;BME280;55437;55.046;38.838;2022-07-06T12:57:47;99778.09;;;30.12;48.25
68456;BME280;55437;55.046;38.838;2022-07-06T13:00:14;99778.34;;;30.02;48.99
68456;BME280;55437;55.046;38.838;2022-07-06T13:02:44;99775.91;;;29.92;48.99
68456;BME280;55437;55.046;38.838;2022-07-06T13:05:13;99769.81;;;29.84;48.92
68456;BME280;55437;55.046;38.838;2022-07-06T13:07:45;99776.81;;;29.77;49.77
68456;BME280;55437;55.046;38.838;2022-07-06T13:10:13;99783.59;;;29.71;50.12
68456;BME280;55437;55.046;38.838;2022-07-06T13:12:39;99783.34;;;29.58;50.36
68456;BME280;55437;55.046;38.838;2022-07-06T13:15:08;99784.69;;;29.54;50.89